sensor_id;sensor_type;location;lat;lon;timestamp;pressure;altitude;pressure_sealevel;temperature;humidity
10348;BME280;5220;43.192;23.284;2024-03-23T00:56:02;97008.63;;;7.06;98.83
10348;BME280;5220;43.192;23.284;2024-03-23T00:58:28;97005.75;;;6.96;95.00
10348;BME280;5220;43.192;23.284;2024-03-23T01:00:55;97006.84;;;6.92;93.24
10348;BME280;5220;43.192;23.284;2024-03-23T01:03:20;97003.69;;;6.87;92.20
10348;BME280;5220;43.192;23.284;2024-03-23T01:05:47;97003.41;;;6.91;92.89
10348;BME280;5220;43.192;23.284;2024-03-23T01:08:14;97007.97;;;6.88;92.34
10348;BME280;5220;43.192;23.284;2024-03-23T01:10:42;97007.66;;;6.78;94.42
10348;BME280;5220;43.192;23.284;2024-03-23T01:13:07;97003.03;;;6.83;93.27
10348;BME280;5220;43.192;23.284;2024-03-23T01:15:34;97002.84;;;6.86;93.60
10348;BME280;5220;43.192;23.284;2024-03-23T01:17:59;97001.84;;;6.89;94.39
10348;BME280;5220;43.192;23.284;2024-03-23T01:20:26;97002.78;;;6.88;94.40
10348;BME280;5220;43.192;23.284;2024-03-23T01:22:52;97002.78;;;6.88;94.95
10348;BME280;5220;43.192;23.284;2024-03-23T01:25:19;97002.78;;;6.88;94.38
10348;BME280;5220;43.192;23.284;2024-03-23T01:27:46;96998.53;;;6.87;95.48
10348;BME280;5220;43.192;23.284;2024-03-23T01:30:13;96999.63;;;6.83;95.31
10348;BME280;5220;43.192;23.284;2024-03-23T01:32:39;97006.63;;;6.81;96.58
10348;BME280;5220;43.192;23.284;2024-03-23T01:35:06;97000.81;;;6.77;95.97
10348;BME280;5220;43.192;23.284;2024-03-23T01:37:31;97001.22;;;6.70;96.89
10348;BME280;5220;43.192;23.284;2024-03-23T01:39:58;96994.78;;;6.77;97.10
10348;BME280;5220;43.192;23.284;2024-03-23T01:42:24;96996.53;;;6.46;100.00
10348;BME280;5220;43.192;23.284;2024-03-23T01:44:52;96994.59;;;6.66;98.51
10348;BME280;5220;43.192;23.284;2024-03-23T01:47:17;96996.16;;;6.68;98.46
10348;BME280;5220;43.192;23.284;2024-03-23T01:49:44;96990.88;;;6.70;97.34
10348;BME280;5220;43.192;23.284;2024-03-23T01:52:10;96993.75;;;6.65;99.83
10348;BME280;5220;43.192;23.284;2024-03-23T01:54:37;96991.25;;;6.64;98.27
10348;BME280;5220;43.192;23.284;2024-03-23T01:57:04;96991.06;;;6.67;98.41
10348;BME280;5220;43.192;23.284;2024-03-23T01:59:31;96988.22;;;6.71;99.64
10348;BME280;5220;43.192;23.284;2024-03-23T02:01:58;96994.31;;;6.70;99.36
10348;BME280;5220;43.192;23.284;2024-03-23T02:04:25;96987.66;;;6.66;100.00
10348;BME280;5220;43.192;23.284;2024-03-23T02:06:50;96990.16;;;6.68;100.00
10348;BME280;5220;43.192;23.284;2024-03-23T02:09:17;96994.59;;;6.66;100.00
10348;BME280;5220;43.192;23.284;2024-03-23T02:11:43;96995.66;;;6.62;100.00
10348;BME280;5220;43.192;23.284;2024-03-23T02:14:10;96983.88;;;6.42;100.00
10348;BME280;5220;43.192;23.284;2024-03-23T02:16:35;96989.88;;;6.42;100.00
10348;BME280;5220;43.192;23.284;2024-03-23T02:19:03;96986.38;;;6.43;100.00
10348;BME280;5220;43.192;23.284;2024-03-23T02:21:29;96986.63;;;6.39;100.00
10348;BME280;5220;43.192;23.284;2024-03-23T02:23:58;96988.78;;;6.46;100.00
10348;BME280;5220;43.192;23.284;2024-03-23T02:26:24;96987.78;;;6.49;100.00
10348;BME280;5220;43.192;23.284;2024-03-23T02:28:51;96985.13;;;6.51;100.00
10348;BME280;5220;43.192;23.284;2024-03-23T02:31:16;96984.13;;;6.53;100.00
10348;BME280;5220;43.192;23.284;2024-03-23T02:33:43;96984.94;;;6.54;100.00
10348;BME280;5220;43.192;23.284;2024-03-23T02:36:09;96979.97;;;6.51;100.00
10348;BME280;5220;43.192;23.284;2024-03-23T02:38:35;96985.94;;;6.51;100.00
10348;BME280;5220;43.192;23.284;2024-03-23T02:41:04;96983.44;;;6.49;100.00
10348;BME280;5220;43.192;23.284;2024-03-23T02:43:31;96987.13;;;6.45;100.00
10348;BME280;5220;43.192;23.284;2024-03-23T02:45:56;96982.03;;;6.44;100.00
10348;BME280;5220;43.192;23.284;2024-03-23T02:48:23;96986.53;;;6.40;100.00
10348;BME280;5220;43.192;23.284;2024-03-23T02:50:49;96977.06;;;6.41;100.00
10348;BME280;5220;43.192;23.284;2024-03-23T02:53:15;96988.88;;;6.29;100.00
10348;BME280;5220;43.192;23.284;2024-03-23T02:55:41;96984.56;;;6.14;100.00
10348;BME280;5220;43.192;23.284;2024-03-23T02:58:09;96986.06;;;6.18;100.00
10348;BME280;5220;43.192;23.284;2024-03-23T03:00:35;96985.97;;;6.20;100.00
10348;BME280;5220;43.192;23.284;2024-03-23T03:03:01;96984.88;;;6.24;100.00
10348;BME280;5220;43.192;23.284;2024-03-23T03:05:28;96979.72;;;6.24;100.00
10348;BME280;5220;43.192;23.284;2024-03-23T03:07:55;96979.66;;;6.25;100.00
10348;BME280;5220;43.192;23.284;2024-03-23T03:10:20;96984.81;;;6.25;100.00
10348;BME280;5220;43.192;23.284;2024-03-23T03:12:47;96976.97;;;6.27;100.00
10348;BME280;5220;43.192;23.284;2024-03-23T03:15:14;96976.13;;;6.26;100.00
10348;BME280;5220;43.192;23.284;2024-03-23T03:17:41;96975.75;;;6.18;100.00
10348;BME280;5220;43.192;23.284;2024-03-23T03:20:08;96974.56;;;6.08;100.00
10348;BME280;5220;43.192;23.284;2024-03-23T03:22:38;96973.31;;;6.15;100.00
10348;BME280;5220;43.192;23.284;2024-03-23T03:25:06;96973.16;;;6.18;100.00
10348;BME280;5220;43.192;23.284;2024-03-23T03:27:32;96977.13;;;6.24;100.00
10348;BME280;5220;43.192;23.284;2024-03-23T03:29:59;96973.06;;;6.20;100.00
10348;BME280;5220;43.192;23.284;2024-03-23T03:32:28;96976.31;;;6.23;99.33
10348;BME280;5220;43.192;23.284;2024-03-23T03:34:55;96975.56;;;6.21;99.72
10348;BME280;5220;43.192;23.284;2024-03-23T03:37:21;96970.78;;;6.29;98.60
10348;BME280;5220;43.192;23.284;2024-03-23T03:39:47;96983.38;;;6.35;97.61
10348;BME280;5220;43.192;23.284;2024-03-23T03:42:13;96973.81;;;6.37;98.78
10348;BME280;5220;43.192;23.284;2024-03-23T03:44:40;96976.22;;;6.40;98.04
10348;BME280;5220;43.192;23.284;2024-03-23T03:47:06;96973.47;;;6.43;99.30
10348;BME280;5220;43.192;23.284;2024-03-23T03:49:34;96977.84;;;6.41;99.83
10348;BME280;5220;43.192;23.284;2024-03-23T03:52:00;96975.44;;;6.38;100.00
10348;BME280;5220;43.192;23.284;2024-03-23T03:54:27;96974.88;;;6.33;100.00
10348;BME280;5220;43.192;23.284;2024-03-23T03:56:53;96974.03;;;6.33;100.00
10348;BME280;5220;43.192;23.284;2024-03-23T03:59:19;96970.78;;;6.29;100.00
10348;BME280;5220;43.192;23.284;2024-03-23T04:01:45;96976.97;;;6.27;100.00
10348;BME280;5220;43.192;23.284;2024-03-23T04:04:12;96974.66;;;6.22;100.00
10348;BME280;5220;43.192;23.284;2024-03-23T04:06:40;96970.31;;;6.23;100.00
10348;BME280;5220;43.192;23.284;2024-03-23T04:09:07;96976.31;;;6.23;100.00
10348;BME280;5220;43.192;23.284;2024-03-23T04:11:33;96968.16;;;6.15;100.00
10348;BME280;5220;43.192;23.284;2024-03-23T04:13:59;96969.00;;;6.16;100.00
10348;BME280;5220;43.192;23.284;2024-03-23T04:16:26;96973.66;;;6.09;100.00
10348;BME280;5220;43.192;23.284;2024-03-23T04:18:53;96972.81;;;6.09;100.00
10348;BME280;5220;43.192;23.284;2024-03-23T04:21:19;96964.06;;;6.11;100.00
10348;BME280;5220;43.192;23.284;2024-03-23T04:23:47;96974.56;;;6.08;100.00
10348;BME280;5220;43.192;23.284;2024-03-23T04:26:13;96975.41;;;6.09;100.00
10348;BME280;5220;43.192;23.284;2024-03-23T04:28:40;96965.56;;;6.15;100.00
10348;BME280;5220;43.192;23.284;2024-03-23T04:31:06;96973.22;;;6.17;100.00
10348;BME280;5220;43.192;23.284;2024-03-23T04:33:32;96971.47;;;6.17;99.61
10348;BME280;5220;43.192;23.284;2024-03-23T04:35:58;96962.81;;;6.18;99.61
10348;BME280;5220;43.192;23.284;2024-03-23T04:38:25;96965.47;;;6.17;98.85
10348;BME280;5220;43.192;23.284;2024-03-23T04:40:56;96969.84;;;6.16;97.83
10348;BME280;5220;43.192;23.284;2024-03-23T04:43:23;96969.72;;;6.18;96.91
10348;BME280;5220;43.192;23.284;2024-03-23T04:45:49;96964.50;;;6.19;96.41
10348;BME280;5220;43.192;23.284;2024-03-23T04:48:16;96967.88;;;6.20;96.90
10348;BME280;5220;43.192;23.284;2024-03-23T04:50:43;96972.88;;;6.23;97.87
10348;BME280;5220;43.192;23.284;2024-03-23T04:53:09;96973.72;;;6.23;96.56
10348;BME280;5220;43.192;23.284;2024-03-23T04:55:36;96967.53;;;6.26;95.71
10348;BME280;5220;43.192;23.284;2024-03-23T04:58:04;96970.06;;;6.27;96.37
10348;BME280;5220;43.192;23.284;2024-03-23T05:00:30;96971.63;;;6.30;95.77
10348;BME280;5220;43.192;23.284;2024-03-23T05:02:57;96967.47;;;6.27;95.21
10348;BME280;5220;43.192;23.284;2024-03-23T05:05:22;96970.00;;;6.29;97.75
10348;BME280;5220;43.192;23.284;2024-03-23T05:07:49;96970.56;;;6.34;98.62
10348;BME280;5220;43.192;23.284;2024-03-23T05:10:15;96975.53;;;6.37;100.00
10348;BME280;5220;43.192;23.284;2024-03-23T05:12:41;96965.09;;;6.38;100.00
10348;BME280;5220;43.192;23.284;2024-03-23T05:15:09;96963.19;;;6.42;100.00
10348;BME280;5220;43.192;23.284;2024-03-23T05:17:35;96961.44;;;6.42;100.00
10348;BME280;5220;43.192;23.284;2024-03-23T05:20:03;96963.19;;;6.42;100.00
10348;BME280;5220;43.192;23.284;2024-03-23T05:22:30;96966.72;;;6.41;100.00
10348;BME280;5220;43.192;23.284;2024-03-23T05:24:56;96966.38;;;6.47;100.00
10348;BME280;5220;43.192;23.284;2024-03-23T05:27:23;96961.94;;;6.49;100.00
10348;BME280;5220;43.192;23.284;2024-03-23T05:29:48;96959.09;;;6.54;100.00
10348;BME280;5220;43.192;23.284;2024-03-23T05:32:16;96963.16;;;6.58;100.00
10348;BME280;5220;43.192;23.284;2024-03-23T05:34:44;96955.06;;;6.64;100.00
10348;BME280;5220;43.192;23.284;2024-03-23T05:37:10;96955.53;;;6.70;100.00
10348;BME280;5220;43.192;23.284;2024-03-23T05:39:36;96958.53;;;6.78;100.00
10348;BME280;5220;43.192;23.284;2024-03-23T05:42:03;96952.81;;;6.87;100.00
10348;BME280;5220;43.192;23.284;2024-03-23T05:44:28;96955.78;;;6.95;100.00
10348;BME280;5220;43.192;23.284;2024-03-23T05:46:56;96949.22;;;7.04;100.00
10348;BME280;5220;43.192;23.284;2024-03-23T05:49:23;96941.69;;;7.15;100.00
10348;BME280;5220;43.192;23.284;2024-03-23T05:51:50;96948.59;;;7.29;100.00
10348;BME280;5220;43.192;23.284;2024-03-23T05:54:16;96944.34;;;7.42;100.00
10348;BME280;5220;43.192;23.284;2024-03-23T05:56:42;96944.44;;;7.54;100.00
10348;BME280;5220;43.192;23.284;2024-03-23T05:59:08;96942.59;;;7.71;100.00
10348;BME280;5220;43.192;23.284;2024-03-23T06:01:35;96940.72;;;7.87;100.00
10348;BME280;5220;43.192;23.284;2024-03-23T06:04:00;96937.16;;;8.02;100.00
10348;BME280;5220;43.192;23.284;2024-03-23T06:06:29;96930.91;;;8.19;100.00
10348;BME280;5220;43.192;23.284;2024-03-23T06:08:55;96929.84;;;8.35;100.00
10348;BME280;5220;43.192;23.284;2024-03-23T06:11:22;96931.44;;;8.50;100.00
10348;BME280;5220;43.192;23.284;2024-03-23T06:13:48;96933.78;;;8.68;100.00
10348;BME280;5220;43.192;23.284;2024-03-23T06:16:14;96928.50;;;8.82;100.00
10348;BME280;5220;43.192;23.284;2024-03-23T06:18:40;96928.31;;;8.97;100.00
10348;BME280;5220;43.192;23.284;2024-03-23T06:21:13;96921.28;;;9.12;100.00
10348;BME280;5220;43.192;23.284;2024-03-23T06:23:40;96918.47;;;9.28;100.00
10348;BME280;5220;43.192;23.284;2024-03-23T06:26:07;96915.75;;;9.42;100.00
10348;BME280;5220;43.192;23.284;2024-03-23T06:28:32;96911.25;;;9.56;100.00
10348;BME280;5220;43.192;23.284;2024-03-23T06:30:59;96917.16;;;9.71;98.84
10348;BME280;5220;43.192;23.284;2024-03-23T06:33:25;96914.41;;;9.85;95.64
10348;BME280;5220;43.192;23.284;2024-03-23T06:35:52;96908.13;;;10.00;95.57
10348;BME280;5220;43.192;23.284;2024-03-23T06:38:17;96914.03;;;10.15;89.84
10348;BME280;5220;43.192;23.284;2024-03-23T06:40:46;96913.88;;;10.29;77.90
10348;BME280;5220;43.192;23.284;2024-03-23T06:43:14;96911.69;;;10.47;70.63
10348;BME280;5220;43.192;23.284;2024-03-23T06:45:40;96903.38;;;10.65;80.71
10348;BME280;5220;43.192;23.284;2024-03-23T06:48:06;96897.97;;;10.79;67.80
10348;BME280;5220;43.192;23.284;2024-03-23T06:50:34;96901.09;;;10.96;64.09
10348;BME280;5220;43.192;23.284;2024-03-23T06:53:00;96906.06;;;11.10;58.79
10348;BME280;5220;43.192;23.284;2024-03-23T06:55:27;96904.91;;;11.25;57.04
10348;BME280;5220;43.192;23.284;2024-03-23T06:57:54;96899.13;;;11.44;62.34
10348;BME280;5220;43.192;23.284;2024-03-23T07:00:21;96896.38;;;11.56;53.38
10348;BME280;5220;43.192;23.284;2024-03-23T07:02:47;96889.28;;;11.69;51.15
10348;BME280;5220;43.192;23.284;2024-03-23T07:05:14;96895.81;;;11.86;51.00
10348;BME280;5220;43.192;23.284;2024-03-23T07:07:39;96892.34;;;11.97;47.55
10348;BME280;5220;43.192;23.284;2024-03-23T07:10:07;96896.09;;;12.15;49.31
10348;BME280;5220;43.192;23.284;2024-03-23T07:12:32;96892.03;;;12.22;46.20
10348;BME280;5220;43.192;23.284;2024-03-23T07:15:00;96893.88;;;12.42;48.13
10348;BME280;5220;43.192;23.284;2024-03-23T07:17:26;96890.88;;;12.47;47.13
10348;BME280;5220;43.192;23.284;2024-03-23T07:19:53;96889.25;;;12.66;46.97
10348;BME280;5220;43.192;23.284;2024-03-23T07:22:19;96885.88;;;12.75;46.48
10348;BME280;5220;43.192;23.284;2024-03-23T07:24:45;96887.22;;;12.90;46.76
10348;BME280;5220;43.192;23.284;2024-03-23T07:27:11;96882.75;;;13.02;46.01
10348;BME280;5220;43.192;23.284;2024-03-23T07:29:38;96884.75;;;13.10;46.26
10348;BME280;5220;43.192;23.284;2024-03-23T07:32:05;96883.47;;;13.25;45.24
10348;BME280;5220;43.192;23.284;2024-03-23T07:34:32;96877.09;;;13.38;46.21
10348;BME280;5220;43.192;23.284;2024-03-23T07:36:58;96874.25;;;13.51;45.64
10348;BME280;5220;43.192;23.284;2024-03-23T07:39:24;96874.56;;;13.67;45.52
10348;BME280;5220;43.192;23.284;2024-03-23T07:41:53;96882.69;;;13.74;44.18
10348;BME280;5220;43.192;23.284;2024-03-23T07:44:18;96872.16;;;13.85;43.68
10348;BME280;5220;43.192;23.284;2024-03-23T07:46:45;96870.34;;;13.95;43.78
10348;BME280;5220;43.192;23.284;2024-03-23T07:49:12;96868.59;;;14.05;42.96
10348;BME280;5220;43.192;23.284;2024-03-23T07:51:39;96871.09;;;14.16;41.72
10348;BME280;5220;43.192;23.284;2024-03-23T07:54:05;96868.06;;;14.30;43.05
10348;BME280;5220;43.192;23.284;2024-03-23T07:56:32;96862.88;;;14.40;42.02
10348;BME280;5220;43.192;23.284;2024-03-23T07:58:57;96866.63;;;14.47;41.66
10348;BME280;5220;43.192;23.284;2024-03-23T08:01:24;96865.06;;;14.54;41.47
10348;BME280;5220;43.192;23.284;2024-03-23T08:03:50;96858.03;;;14.64;41.84
10348;BME280;5220;43.192;23.284;2024-03-23T08:06:19;96855.41;;;14.74;40.25
10348;BME280;5220;43.192;23.284;2024-03-23T08:08:46;96853.91;;;14.81;40.38
10348;BME280;5220;43.192;23.284;2024-03-23T08:11:13;96849.31;;;14.92;40.72
10348;BME280;5220;43.192;23.284;2024-03-23T08:13:40;96846.00;;;15.00;39.90
10348;BME280;5220;43.192;23.284;2024-03-23T08:16:08;96851.63;;;15.05;40.03
10348;BME280;5220;43.192;23.284;2024-03-23T08:18:34;96855.06;;;15.15;40.40
10348;BME280;5220;43.192;23.284;2024-03-23T08:21:01;96844.03;;;15.12;40.01
10348;BME280;5220;43.192;23.284;2024-03-23T08:23:30;96845.13;;;15.19;39.80
10348;BME280;5220;43.192;23.284;2024-03-23T08:25:59;96850.72;;;15.33;39.40
10348;BME280;5220;43.192;23.284;2024-03-23T08:28:25;96836.22;;;15.48;38.53
10348;BME280;5220;43.192;23.284;2024-03-23T08:30:52;96840.34;;;15.51;38.59
10348;BME280;5220;43.192;23.284;2024-03-23T08:33:18;96835.63;;;15.54;39.20
10348;BME280;5220;43.192;23.284;2024-03-23T08:35:53;96833.63;;;15.66;39.67
10348;BME280;5220;43.192;23.284;2024-03-23T08:38:19;96839.16;;;15.63;38.87
10348;BME280;5220;43.192;23.284;2024-03-23T08:40:47;96832.31;;;15.80;38.90
10348;BME280;5220;43.192;23.284;2024-03-23T08:43:13;96834.59;;;15.92;38.91
10348;BME280;5220;43.192;23.284;2024-03-23T08:45:40;96830.59;;;15.88;36.70
10348;BME280;5220;43.192;23.284;2024-03-23T08:48:06;96833.88;;;16.00;37.47
10348;BME280;5220;43.192;23.284;2024-03-23T08:50:33;96819.53;;;15.94;38.17
10348;BME280;5220;43.192;23.284;2024-03-23T08:52:59;96817.38;;;16.07;38.35
10348;BME280;5220;43.192;23.284;2024-03-23T08:55:26;96822.31;;;16.10;38.59
10348;BME280;5220;43.192;23.284;2024-03-23T08:57:53;96815.72;;;16.24;38.06
10348;BME280;5220;43.192;23.284;2024-03-23T09:00:20;96817.97;;;16.37;38.84
10348;BME280;5220;43.192;23.284;2024-03-23T09:02:47;96812.28;;;16.06;37.25
10348;BME280;5220;43.192;23.284;2024-03-23T09:05:14;96800.41;;;16.20;37.55
10348;BME280;5220;43.192;23.284;2024-03-23T09:07:39;96798.09;;;16.34;38.93
10348;BME280;5220;43.192;23.284;2024-03-23T09:10:07;96793.34;;;16.38;38.66
10348;BME280;5220;43.192;23.284;2024-03-23T09:12:33;96791.47;;;16.48;37.57
10348;BME280;5220;43.192;23.284;2024-03-23T09:15:01;96789.38;;;16.51;37.84
10348;BME280;5220;43.192;23.284;2024-03-23T09:17:27;96778.28;;;16.57;38.42
10348;BME280;5220;43.192;23.284;2024-03-23T09:19:53;96785.09;;;16.68;37.84
10348;BME280;5220;43.192;23.284;2024-03-23T09:22:19;96776.66;;;16.82;38.38
10348;BME280;5220;43.192;23.284;2024-03-23T09:24:46;96774.34;;;16.79;37.46
10348;BME280;5220;43.192;23.284;2024-03-23T09:27:11;96767.63;;;16.85;36.92
10348;BME280;5220;43.192;23.284;2024-03-23T09:29:38;96762.22;;;16.86;38.05
10348;BME280;5220;43.192;23.284;2024-03-23T09:32:06;96762.78;;;16.98;39.14
10348;BME280;5220;43.192;23.284;2024-03-23T09:34:34;96764.03;;;17.11;39.21
10348;BME280;5220;43.192;23.284;2024-03-23T09:36:59;96751.38;;;17.15;38.53
10348;BME280;5220;43.192;23.284;2024-03-23T09:39:26;96759.41;;;17.13;38.13
10348;BME280;5220;43.192;23.284;2024-03-23T09:41:56;96748.94;;;16.88;38.88
10348;BME280;5220;43.192;23.284;2024-03-23T09:44:24;96748.66;;;16.65;39.45
10348;BME280;5220;43.192;23.284;2024-03-23T09:46:51;96747.81;;;16.64;39.57
10348;BME280;5220;43.192;23.284;2024-03-23T09:49:19;96754.88;;;16.90;38.95
10348;BME280;5220;43.192;23.284;2024-03-23T09:51:45;96740.88;;;16.81;39.22
10348;BME280;5220;43.192;23.284;2024-03-23T09:54:12;96745.63;;;16.86;39.03
10348;BME280;5220;43.192;23.284;2024-03-23T09:56:37;96735.53;;;16.73;40.02
10348;BME280;5220;43.192;23.284;2024-03-23T09:59:04;96736.41;;;16.82;39.70
10348;BME280;5220;43.192;23.284;2024-03-23T10:01:30;96735.03;;;17.03;39.17
10348;BME280;5220;43.192;23.284;2024-03-23T10:03:57;96728.81;;;17.04;38.32
10348;BME280;5220;43.192;23.284;2024-03-23T10:06:24;96723.63;;;17.20;39.16
10348;BME280;5220;43.192;23.284;2024-03-23T10:08:53;96719.91;;;16.97;38.62
10348;BME280;5220;43.192;23.284;2024-03-23T10:11:20;96714.94;;;17.28;38.61
10348;BME280;5220;43.192;23.284;2024-03-23T10:13:48;96704.66;;;17.43;38.08
10348;BME280;5220;43.192;23.284;2024-03-23T10:16:21;96708.97;;;17.52;37.76
10348;BME280;5220;43.192;23.284;2024-03-23T10:18:48;96700.94;;;17.61;37.43
10348;BME280;5220;43.192;23.284;2024-03-23T10:21:15;96697.41;;;17.37;37.26
10348;BME280;5220;43.192;23.284;2024-03-23T10:23:44;96694.16;;;17.51;38.03
10348;BME280;5220;43.192;23.284;2024-03-23T10:26:15;96687.16;;;17.76;37.63
10348;BME280;5220;43.192;23.284;2024-03-23T10:28:52;96686.34;;;17.91;37.24
10348;BME280;5220;43.192;23.284;2024-03-23T10:31:18;96688.56;;;17.54;37.18
10348;BME280;5220;43.192;23.284;2024-03-23T10:33:46;96668.41;;;17.70;36.38
10348;BME280;5220;43.192;23.284;2024-03-23T10:36:12;96669.53;;;17.60;36.63
10348;BME280;5220;43.192;23.284;2024-03-23T10:38:40;96667.97;;;17.41;37.52
10348;BME280;5220;43.192;23.284;2024-03-23T10:41:08;96657.72;;;17.64;37.21
10348;BME280;5220;43.192;23.284;2024-03-23T10:43:36;96643.56;;;17.97;37.70
10348;BME280;5220;43.192;23.284;2024-03-23T10:46:02;96651.47;;;17.81;36.50
10348;BME280;5220;43.192;23.284;2024-03-23T10:48:29;96642.91;;;17.79;36.05
10348;BME280;5220;43.192;23.284;2024-03-23T10:50:54;96635.84;;;17.96;36.90
10348;BME280;5220;43.192;23.284;2024-03-23T10:53:25;96628.44;;;18.07;36.48
10348;BME280;5220;43.192;23.284;2024-03-23T10:55:52;96623.16;;;18.15;36.12
10348;BME280;5220;43.192;23.284;2024-03-23T10:58:23;96620.84;;;18.28;35.60
10348;BME280;5220;43.192;23.284;2024-03-23T11:00:50;96620.34;;;18.25;36.83
10348;BME280;5220;43.192;23.284;2024-03-23T11:03:35;96615.59;;;18.04;35.88
10348;BME280;5220;43.192;23.284;2024-03-23T11:06:02;96612.94;;;18.28;36.07
10348;BME280;5220;43.192;23.284;2024-03-23T11:08:30;96611.94;;;18.21;35.95
10348;BME280;5220;43.192;23.284;2024-03-23T11:11:11;96608.00;;;18.25;36.50
10348;BME280;5220;43.192;23.284;2024-03-23T11:13:39;96615.41;;;18.30;35.15
10348;BME280;5220;43.192;23.284;2024-03-23T11:16:13;96598.16;;;18.27;36.09
10348;BME280;5220;43.192;23.284;2024-03-23T11:18:40;96587.41;;;18.37;35.16
10348;BME280;5220;43.192;23.284;2024-03-23T11:21:07;96592.09;;;17.95;35.64
10348;BME280;5220;43.192;23.284;2024-03-23T11:23:34;96586.66;;;18.04;35.73
10348;BME280;5220;43.192;23.284;2024-03-23T11:25:59;96586.25;;;18.40;35.61
10348;BME280;5220;43.192;23.284;2024-03-23T11:28:26;96582.25;;;18.60;35.34
10348;BME280;5220;43.192;23.284;2024-03-23T11:30:53;96585.03;;;18.66;34.43
10348;BME280;5220;43.192;23.284;2024-03-23T11:33:20;96576.44;;;18.72;34.27
10348;BME280;5220;43.192;23.284;2024-03-23T11:35:45;96570.75;;;18.53;33.96
10348;BME280;5220;43.192;23.284;2024-03-23T11:38:13;96568.75;;;18.63;34.15
10348;BME280;5220;43.192;23.284;2024-03-23T11:40:40;96563.00;;;18.43;33.85
10348;BME280;5220;43.192;23.284;2024-03-23T11:43:08;96561.28;;;18.27;33.25
10348;BME280;5220;43.192;23.284;2024-03-23T11:45:36;96548.53;;;18.47;33.87
10348;BME280;5220;43.192;23.284;2024-03-23T11:48:07;96547.13;;;18.75;33.60
10348;BME280;5220;43.192;23.284;2024-03-23T11:50:34;96542.25;;;18.87;33.26
10348;BME280;5220;43.192;23.284;2024-03-23T11:53:08;96531.97;;;19.00;33.09
10348;BME280;5220;43.192;23.284;2024-03-23T11:55:39;96528.84;;;19.05;32.79
10348;BME280;5220;43.192;23.284;2024-03-23T11:58:06;96523.91;;;19.02;32.32
10348;BME280;5220;43.192;23.284;2024-03-23T12:00:33;96520.97;;;19.19;32.04
10348;BME280;5220;43.192;23.284;2024-03-23T12:03:00;96520.50;;;19.39;31.95
10348;BME280;5220;43.192;23.284;2024-03-23T12:05:28;96510.78;;;19.16;32.92
10348;BME280;5220;43.192;23.284;2024-03-23T12:07:55;96514.09;;;19.41;33.40
10348;BME280;5220;43.192;23.284;2024-03-23T12:10:21;96504.47;;;19.48;34.04
10348;BME280;5220;43.192;23.284;2024-03-23T12:12:59;96500.94;;;19.10;33.28
10348;BME280;5220;43.192;23.284;2024-03-23T12:15:25;96491.63;;;19.22;32.92
10348;BME280;5220;43.192;23.284;2024-03-23T12:17:56;96487.09;;;19.31;34.03
10348;BME280;5220;43.192;23.284;2024-03-23T12:20:32;96490.56;;;19.31;33.71
10348;BME280;5220;43.192;23.284;2024-03-23T12:23:05;96483.63;;;19.30;32.83
10348;BME280;5220;43.192;23.284;2024-03-23T12:25:31;96472.91;;;19.32;32.76
10348;BME280;5220;43.192;23.284;2024-03-23T12:27:58;96472.22;;;19.38;32.85
10348;BME280;5220;43.192;23.284;2024-03-23T12:30:25;96466.19;;;19.29;32.75
10348;BME280;5220;43.192;23.284;2024-03-23T12:32:51;96465.38;;;19.06;32.62
10348;BME280;5220;43.192;23.284;2024-03-23T12:35:17;96464.13;;;18.94;32.60
10348;BME280;5220;43.192;23.284;2024-03-23T12:37:44;96457.91;;;18.87;32.85
10348;BME280;5220;43.192;23.284;2024-03-23T12:40:11;96450.41;;;19.21;32.91
10348;BME280;5220;43.192;23.284;2024-03-23T12:42:37;96447.78;;;19.44;32.44
10348;BME280;5220;43.192;23.284;2024-03-23T12:45:04;96436.25;;;19.60;32.48
10348;BME280;5220;43.192;23.284;2024-03-23T12:47:30;96434.06;;;19.63;32.67
10348;BME280;5220;43.192;23.284;2024-03-23T12:49:57;96434.06;;;19.63;32.09
10348;BME280;5220;43.192;23.284;2024-03-23T12:52:23;96432.34;;;19.85;32.27
10348;BME280;5220;43.192;23.284;2024-03-23T12:54:55;96428.25;;;19.97;31.90
10348;BME280;5220;43.192;23.284;2024-03-23T12:57:22;96432.25;;;19.93;31.99
10348;BME280;5220;43.192;23.284;2024-03-23T12:59:49;96420.97;;;19.99;31.75
10348;BME280;5220;43.192;23.284;2024-03-23T13:02:17;96416.78;;;20.05;32.04
10348;BME280;5220;43.192;23.284;2024-03-23T13:04:45;96420.44;;;19.89;31.86
10348;BME280;5220;43.192;23.284;2024-03-23T13:07:10;96414.72;;;19.85;31.99
10348;BME280;5220;43.192;23.284;2024-03-23T13:09:38;96412.97;;;19.63;32.20
10348;BME280;5220;43.192;23.284;2024-03-23T13:12:05;96412.13;;;19.63;33.32
10348;BME280;5220;43.192;23.284;2024-03-23T13:14:33;96413.69;;;19.72;32.81
10348;BME280;5220;43.192;23.284;2024-03-23T13:16:59;96399.59;;;19.79;32.10
10348;BME280;5220;43.192;23.284;2024-03-23T13:19:27;96397.78;;;19.80;31.71
10348;BME280;5220;43.192;23.284;2024-03-23T13:21:53;96398.31;;;19.61;32.20
10348;BME280;5220;43.192;23.284;2024-03-23T13:24:22;96394.56;;;19.41;32.58
10348;BME280;5220;43.192;23.284;2024-03-23T13:26:49;96392.59;;;19.34;32.25
10348;BME280;5220;43.192;23.284;2024-03-23T13:29:17;96387.41;;;19.64;31.91
10348;BME280;5220;43.192;23.284;2024-03-23T13:31:43;96381.06;;;19.36;32.02
10348;BME280;5220;43.192;23.284;2024-03-23T13:34:10;96378.19;;;19.60;31.43
10348;BME280;5220;43.192;23.284;2024-03-23T13:36:35;96369.66;;;19.72;31.65
10348;BME280;5220;43.192;23.284;2024-03-23T13:39:03;96371.19;;;19.81;32.09
10348;BME280;5220;43.192;23.284;2024-03-23T13:41:31;96373.28;;;19.71;33.31
10348;BME280;5220;43.192;23.284;2024-03-23T13:43:58;96369.34;;;19.97;32.27
10348;BME280;5220;43.192;23.284;2024-03-23T13:46:25;96363.78;;;20.06;31.64
10348;BME280;5220;43.192;23.284;2024-03-23T13:48:52;96359.88;;;20.02;31.83
10348;BME280;5220;43.192;23.284;2024-03-23T13:51:23;96359.06;;;20.02;31.51
10348;BME280;5220;43.192;23.284;2024-03-23T13:53:52;96352.66;;;19.46;31.22
10348;BME280;5220;43.192;23.284;2024-03-23T13:56:17;96366.19;;;19.57;31.36